sensor_id;sensor_type;location;lat;lon;timestamp;P1;durP1;ratioP1;P2;durP2;ratioP2
81896;SDS011;71360;43.506;1.500;2023-11-19T00:02:12;12.30;;;6.20;;
81896;SDS011;71360;43.506;1.500;2023-11-19T00:04:38;14.13;;;6.10;;
81896;SDS011;71360;43.506;1.500;2023-11-19T00:07:07;11.97;;;5.70;;
81896;SDS011;71360;43.506;1.500;2023-11-19T00:09:36;12.90;;;6.13;;
81896;SDS011;71360;43.506;1.500;2023-11-19T00:12:06;14.07;;;7.90;;
81896;SDS011;71360;43.506;1.500;2023-11-19T00:14:32;15.45;;;9.40;;
81896;SDS011;71360;43.506;1.500;2023-11-19T00:16:59;18.20;;;9.33;;
81896;SDS011;71360;43.506;1.500;2023-11-19T00:19:25;17.52;;;9.27;;
81896;SDS011;71360;43.506;1.500;2023-11-19T00:21:51;16.70;;;9.38;;
81896;SDS011;71360;43.506;1.500;2023-11-19T00:24:17;20.20;;;9.47;;
81896;SDS011;71360;43.506;1.500;2023-11-19T00:26:42;17.40;;;9.70;;
81896;SDS011;71360;43.506;1.500;2023-11-19T00:29:08;20.50;;;9.83;;
81896;SDS011;71360;43.506;1.500;2023-11-19T00:31:33;17.63;;;9.50;;
81896;SDS011;71360;43.506;1.500;2023-11-19T00:33:59;16.38;;;9.40;;
81896;SDS011;71360;43.506;1.500;2023-11-19T00:36:24;21.50;;;10.07;;
81896;SDS011;71360;43.506;1.500;2023-11-19T00:38:50;18.00;;;9.93;;
81896;SDS011;71360;43.506;1.500;2023-11-19T00:41:17;19.40;;;9.82;;
81896;SDS011;71360;43.506;1.500;2023-11-19T00:43:43;17.92;;;8.93;;
81896;SDS011;71360;43.506;1.500;2023-11-19T00:46:08;16.93;;;9.77;;
81896;SDS011;71360;43.506;1.500;2023-11-19T00:48:36;17.15;;;9.63;;
81896;SDS011;71360;43.506;1.500;2023-11-19T00:51:01;14.20;;;9.03;;
81896;SDS011;71360;43.506;1.500;2023-11-19T00:53:27;15.38;;;8.57;;
81896;SDS011;71360;43.506;1.500;2023-11-19T00:55:52;14.87;;;8.57;;
81896;SDS011;71360;43.506;1.500;2023-11-19T00:58:18;17.73;;;8.63;;
81896;SDS011;71360;43.506;1.500;2023-11-19T01:00:43;16.90;;;8.75;;
81896;SDS011;71360;43.506;1.500;2023-11-19T01:03:10;16.60;;;9.03;;
81896;SDS011;71360;43.506;1.500;2023-11-19T01:05:36;16.40;;;9.20;;
81896;SDS011;71360;43.506;1.500;2023-11-19T01:08:02;15.80;;;8.68;;
81896;SDS011;71360;43.506;1.500;2023-11-19T01:10:29;15.73;;;9.20;;
81896;SDS011;71360;43.506;1.500;2023-11-19T01:12:55;17.25;;;9.07;;
81896;SDS011;71360;43.506;1.500;2023-11-19T01:15:21;18.57;;;8.77;;
81896;SDS011;71360;43.506;1.500;2023-11-19T01:17:46;15.27;;;8.43;;
81896;SDS011;71360;43.506;1.500;2023-11-19T01:20:11;16.97;;;8.17;;
81896;SDS011;71360;43.506;1.500;2023-11-19T01:22:38;14.52;;;8.32;;
81896;SDS011;71360;43.506;1.500;2023-11-19T01:25:05;17.02;;;8.30;;
81896;SDS011;71360;43.506;1.500;2023-11-19T01:27:31;16.67;;;8.87;;
81896;SDS011;71360;43.506;1.500;2023-11-19T01:29:56;17.13;;;8.77;;
81896;SDS011;71360;43.506;1.500;2023-11-19T01:32:22;16.23;;;8.93;;
81896;SDS011;71360;43.506;1.500;2023-11-19T01:34:49;17.55;;;9.10;;
81896;SDS011;71360;43.506;1.500;2023-11-19T01:37:14;17.90;;;8.70;;
81896;SDS011;71360;43.506;1.500;2023-11-19T01:39:43;16.55;;;8.90;;
81896;SDS011;71360;43.506;1.500;2023-11-19T01:42:09;16.43;;;8.73;;
81896;SDS011;71360;43.506;1.500;2023-11-19T01:44:34;18.58;;;9.35;;
81896;SDS011;71360;43.506;1.500;2023-11-19T01:46:59;18.10;;;9.50;;
81896;SDS011;71360;43.506;1.500;2023-11-19T01:49:26;16.17;;;9.20;;
81896;SDS011;71360;43.506;1.500;2023-11-19T01:51:51;16.73;;;9.23;;
81896;SDS011;71360;43.506;1.500;2023-11-19T01:54:17;16.00;;;9.70;;
81896;SDS011;71360;43.506;1.500;2023-11-19T01:56:42;15.27;;;9.17;;
81896;SDS011;71360;43.506;1.500;2023-11-19T01:59:09;18.20;;;9.50;;
81896;SDS011;71360;43.506;1.500;2023-11-19T02:01:36;15.73;;;9.32;;
81896;SDS011;71360;43.506;1.500;2023-11-19T02:04:05;15.10;;;8.93;;
81896;SDS011;71360;43.506;1.500;2023-11-19T02:06:32;16.70;;;9.13;;
81896;SDS011;71360;43.506;1.500;2023-11-19T02:08:59;15.45;;;8.88;;
81896;SDS011;71360;43.506;1.500;2023-11-19T02:11:26;14.25;;;8.85;;
81896;SDS011;71360;43.506;1.500;2023-11-19T02:13:54;17.60;;;8.90;;
81896;SDS011;71360;43.506;1.500;2023-11-19T02:16:21;18.50;;;8.97;;
81896;SDS011;71360;43.506;1.500;2023-11-19T02:18:46;17.17;;;8.77;;
81896;SDS011;71360;43.506;1.500;2023-11-19T02:21:13;15.98;;;8.45;;
81896;SDS011;71360;43.506;1.500;2023-11-19T02:23:40;17.17;;;9.00;;
81896;SDS011;71360;43.506;1.500;2023-11-19T02:26:22;17.93;;;9.53;;
81896;SDS011;71360;43.506;1.500;2023-11-19T02:28:53;17.48;;;9.30;;
81896;SDS011;71360;43.506;1.500;2023-11-19T02:31:19;22.37;;;9.20;;
81896;SDS011;71360;43.506;1.500;2023-11-19T02:33:45;16.60;;;8.95;;
81896;SDS011;71360;43.506;1.500;2023-11-19T02:36:11;14.85;;;8.73;;
81896;SDS011;71360;43.506;1.500;2023-11-19T02:38:36;14.87;;;8.77;;
81896;SDS011;71360;43.506;1.500;2023-11-19T02:41:06;17.35;;;9.07;;
81896;SDS011;71360;43.506;1.500;2023-11-19T02:43:32;16.05;;;9.23;;
81896;SDS011;71360;43.506;1.500;2023-11-19T02:46:00;16.13;;;9.20;;
81896;SDS011;71360;43.506;1.500;2023-11-19T02:48:33;16.27;;;9.55;;
81896;SDS011;71360;43.506;1.500;2023-11-19T02:51:02;18.35;;;9.55;;
81896;SDS011;71360;43.506;1.500;2023-11-19T02:53:31;16.25;;;9.32;;
81896;SDS011;71360;43.506;1.500;2023-11-19T02:55:57;20.35;;;9.55;;
81896;SDS011;71360;43.506;1.500;2023-11-19T02:58:31;18.63;;;8.93;;
81896;SDS011;71360;43.506;1.500;2023-11-19T03:00:56;18.08;;;9.38;;
81896;SDS011;71360;43.506;1.500;2023-11-19T03:03:26;15.80;;;8.90;;
81896;SDS011;71360;43.506;1.500;2023-11-19T03:06:04;17.15;;;8.90;;
81896;SDS011;71360;43.506;1.500;2023-11-19T03:08:30;14.83;;;8.20;;
81896;SDS011;71360;43.506;1.500;2023-11-19T03:10:55;15.85;;;8.85;;
81896;SDS011;71360;43.506;1.500;2023-11-19T03:13:21;17.37;;;8.80;;
81896;SDS011;71360;43.506;1.500;2023-11-19T03:15:47;17.10;;;9.32;;
81896;SDS011;71360;43.506;1.500;2023-11-19T03:18:12;15.43;;;9.17;;
81896;SDS011;71360;43.506;1.500;2023-11-19T03:20:38;15.85;;;8.93;;
81896;SDS011;71360;43.506;1.500;2023-11-19T03:23:04;16.27;;;9.43;;
81896;SDS011;71360;43.506;1.500;2023-11-19T03:25:29;15.90;;;9.00;;
81896;SDS011;71360;43.506;1.500;2023-11-19T03:27:59;15.57;;;8.68;;
81896;SDS011;71360;43.506;1.500;2023-11-19T03:30:26;16.48;;;8.93;;
81896;SDS011;71360;43.506;1.500;2023-11-19T03:32:51;15.23;;;8.50;;
81896;SDS011;71360;43.506;1.500;2023-11-19T03:35:17;18.87;;;8.57;;
81896;SDS011;71360;43.506;1.500;2023-11-19T03:37:42;16.23;;;8.60;;
81896;SDS011;71360;43.506;1.500;2023-11-19T03:40:08;18.27;;;8.30;;
81896;SDS011;71360;43.506;1.500;2023-11-19T03:42:35;15.37;;;8.83;;
81896;SDS011;71360;43.506;1.500;2023-11-19T03:45:00;18.05;;;8.35;;
81896;SDS011;71360;43.506;1.500;2023-11-19T03:47:26;15.10;;;7.87;;
81896;SDS011;71360;43.506;1.500;2023-11-19T03:49:52;15.30;;;8.40;;
81896;SDS011;71360;43.506;1.500;2023-11-19T03:52:17;16.70;;;8.80;;
81896;SDS011;71360;43.506;1.500;2023-11-19T03:54:44;17.65;;;8.68;;
81896;SDS011;71360;43.506;1.500;2023-11-19T03:57:10;16.27;;;9.30;;
81896;SDS011;71360;43.506;1.500;2023-11-19T03:59:37;14.98;;;8.80;;
81896;SDS011;71360;43.506;1.500;2023-11-19T04:02:02;16.02;;;8.68;;
81896;SDS011;71360;43.506;1.500;2023-11-19T04:04:28;15.70;;;8.63;;
81896;SDS011;71360;43.506;1.500;2023-11-19T04:06:57;14.60;;;8.65;;
81896;SDS011;71360;43.506;1.500;2023-11-19T04:09:23;17.35;;;8.35;;
81896;SDS011;71360;43.506;1.500;2023-11-19T04:11:49;16.63;;;8.33;;
81896;SDS011;71360;43.506;1.500;2023-11-19T04:14:14;14.52;;;7.85;;
81896;SDS011;71360;43.506;1.500;2023-11-19T04:16:43;13.82;;;7.50;;
81896;SDS011;71360;43.506;1.500;2023-11-19T04:19:08;15.77;;;7.90;;
81896;SDS011;71360;43.506;1.500;2023-11-19T04:21:33;14.50;;;7.57;;
81896;SDS011;71360;43.506;1.500;2023-11-19T04:23:59;17.03;;;7.20;;
81896;SDS011;71360;43.506;1.500;2023-11-19T04:26:24;13.13;;;6.80;;
81896;SDS011;71360;43.506;1.500;2023-11-19T04:28:50;12.83;;;6.97;;
81896;SDS011;71360;43.506;1.500;2023-11-19T04:31:15;13.33;;;6.63;;
81896;SDS011;71360;43.506;1.500;2023-11-19T04:33:41;12.43;;;7.18;;
81896;SDS011;71360;43.506;1.500;2023-11-19T04:36:08;13.35;;;6.65;;
81896;SDS011;71360;43.506;1.500;2023-11-19T04:38:33;14.03;;;7.13;;
81896;SDS011;71360;43.506;1.500;2023-11-19T04:40:59;14.35;;;6.95;;
81896;SDS011;71360;43.506;1.500;2023-11-19T04:43:25;13.87;;;7.00;;
81896;SDS011;71360;43.506;1.500;2023-11-19T04:45:50;11.85;;;6.72;;
81896;SDS011;71360;43.506;1.500;2023-11-19T04:48:16;13.90;;;7.07;;
81896;SDS011;71360;43.506;1.500;2023-11-19T04:50:41;12.70;;;6.70;;
81896;SDS011;71360;43.506;1.500;2023-11-19T04:53:07;11.97;;;6.50;;
81896;SDS011;71360;43.506;1.500;2023-11-19T04:55:32;12.77;;;6.70;;
81896;SDS011;71360;43.506;1.500;2023-11-19T04:57:57;13.23;;;6.57;;
81896;SDS011;71360;43.506;1.500;2023-11-19T05:00:23;12.90;;;6.23;;
81896;SDS011;71360;43.506;1.500;2023-11-19T05:02:48;12.37;;;6.60;;
81896;SDS011;71360;43.506;1.500;2023-11-19T05:05:15;13.80;;;6.80;;
81896;SDS011;71360;43.506;1.500;2023-11-19T05:07:40;13.30;;;6.22;;
81896;SDS011;71360;43.506;1.500;2023-11-19T05:10:06;11.03;;;6.27;;
81896;SDS011;71360;43.506;1.500;2023-11-19T05:12:32;12.43;;;5.75;;
81896;SDS011;71360;43.506;1.500;2023-11-19T05:14:57;12.53;;;6.33;;
81896;SDS011;71360;43.506;1.500;2023-11-19T05:17:23;11.48;;;5.68;;
81896;SDS011;71360;43.506;1.500;2023-11-19T05:19:49;11.70;;;5.47;;
81896;SDS011;71360;43.506;1.500;2023-11-19T05:22:14;11.43;;;5.63;;
81896;SDS011;71360;43.506;1.500;2023-11-19T05:24:40;11.07;;;5.77;;
81896;SDS011;71360;43.506;1.500;2023-11-19T05:27:06;11.73;;;5.20;;
81896;SDS011;71360;43.506;1.500;2023-11-19T05:29:33;9.48;;;5.00;;
81896;SDS011;71360;43.506;1.500;2023-11-19T05:31:58;15.43;;;5.17;;
81896;SDS011;71360;43.506;1.500;2023-11-19T05:34:24;10.60;;;5.20;;
81896;SDS011;71360;43.506;1.500;2023-11-19T05:36:50;10.40;;;5.57;;
81896;SDS011;71360;43.506;1.500;2023-11-19T05:39:16;9.68;;;5.35;;
81896;SDS011;71360;43.506;1.500;2023-11-19T05:41:42;10.43;;;5.40;;
81896;SDS011;71360;43.506;1.500;2023-11-19T05:44:07;11.63;;;5.88;;
81896;SDS011;71360;43.506;1.500;2023-11-19T05:46:33;10.30;;;5.37;;
81896;SDS011;71360;43.506;1.500;2023-11-19T05:48:58;9.60;;;5.47;;
81896;SDS011;71360;43.506;1.500;2023-11-19T05:51:24;12.10;;;5.33;;
81896;SDS011;71360;43.506;1.500;2023-11-19T05:53:49;13.52;;;5.45;;
81896;SDS011;71360;43.506;1.500;2023-11-19T05:56:15;10.20;;;5.60;;
81896;SDS011;71360;43.506;1.500;2023-11-19T05:58:46;12.27;;;6.18;;
81896;SDS011;71360;43.506;1.500;2023-11-19T06:01:13;10.32;;;5.95;;
81896;SDS011;71360;43.506;1.500;2023-11-19T06:03:38;11.93;;;5.60;;
81896;SDS011;71360;43.506;1.500;2023-11-19T06:06:04;10.73;;;5.70;;
81896;SDS011;71360;43.506;1.500;2023-11-19T06:08:30;9.67;;;5.07;;
81896;SDS011;71360;43.506;1.500;2023-11-19T06:10:56;10.57;;;4.60;;
81896;SDS011;71360;43.506;1.500;2023-11-19T06:13:22;10.48;;;4.70;;
81896;SDS011;71360;43.506;1.500;2023-11-19T06:15:47;11.43;;;4.73;;
81896;SDS011;71360;43.506;1.500;2023-11-19T06:18:13;9.37;;;4.90;;
81896;SDS011;71360;43.506;1.500;2023-11-19T06:20:40;9.00;;;5.05;;
81896;SDS011;71360;43.506;1.500;2023-11-19T06:23:05;11.68;;;5.38;;
81896;SDS011;71360;43.506;1.500;2023-11-19T06:25:31;10.47;;;4.77;;
81896;SDS011;71360;43.506;1.500;2023-11-19T06:27:57;9.07;;;4.72;;
81896;SDS011;71360;43.506;1.500;2023-11-19T06:30:23;9.63;;;5.22;;
81896;SDS011;71360;43.506;1.500;2023-11-19T06:32:48;9.83;;;4.77;;
81896;SDS011;71360;43.506;1.500;2023-11-19T06:35:14;13.80;;;4.77;;
81896;SDS011;71360;43.506;1.500;2023-11-19T06:37:39;9.83;;;4.97;;
81896;SDS011;71360;43.506;1.500;2023-11-19T06:40:06;9.82;;;4.60;;
81896;SDS011;71360;43.506;1.500;2023-11-19T06:42:34;9.80;;;4.50;;
81896;SDS011;71360;43.506;1.500;2023-11-19T06:44:59;8.98;;;4.65;;
81896;SDS011;71360;43.506;1.500;2023-11-19T06:47:28;9.00;;;5.00;;
81896;SDS011;71360;43.506;1.500;2023-11-19T06:49:54;9.18;;;4.82;;
81896;SDS011;71360;43.506;1.500;2023-11-19T06:52:20;11.07;;;4.80;;
81896;SDS011;71360;43.506;1.500;2023-11-19T06:54:45;10.77;;;5.07;;
81896;SDS011;71360;43.506;1.500;2023-11-19T06:57:11;12.07;;;5.30;;
81896;SDS011;71360;43.506;1.500;2023-11-19T06:59:37;12.45;;;5.78;;
81896;SDS011;71360;43.506;1.500;2023-11-19T07:02:02;11.10;;;6.13;;
81896;SDS011;71360;43.506;1.500;2023-11-19T07:04:29;15.00;;;6.68;;
81896;SDS011;71360;43.506;1.500;2023-11-19T07:06:55;13.20;;;7.03;;
81896;SDS011;71360;43.506;1.500;2023-11-19T07:09:20;12.80;;;6.43;;
81896;SDS011;71360;43.506;1.500;2023-11-19T07:11:46;11.43;;;6.90;;
81896;SDS011;71360;43.506;1.500;2023-11-19T07:14:11;15.13;;;10.38;;
81896;SDS011;71360;43.506;1.500;2023-11-19T07:16:37;12.20;;;8.53;;
81896;SDS011;71360;43.506;1.500;2023-11-19T07:19:04;11.90;;;7.22;;
81896;SDS011;71360;43.506;1.500;2023-11-19T07:21:30;12.57;;;7.63;;
81896;SDS011;71360;43.506;1.500;2023-11-19T07:23:57;12.15;;;7.70;;
81896;SDS011;71360;43.506;1.500;2023-11-19T07:26:23;11.67;;;6.43;;
81896;SDS011;71360;43.506;1.500;2023-11-19T07:28:49;10.80;;;6.35;;
81896;SDS011;71360;43.506;1.500;2023-11-19T07:31:15;12.80;;;6.90;;
81896;SDS011;71360;43.506;1.500;2023-11-19T07:33:40;12.60;;;6.97;;
81896;SDS011;71360;43.506;1.500;2023-11-19T07:36:08;12.57;;;6.60;;
81896;SDS011;71360;43.506;1.500;2023-11-19T07:38:34;12.25;;;6.50;;
81896;SDS011;71360;43.506;1.500;2023-11-19T07:41:00;12.83;;;7.30;;
81896;SDS011;71360;43.506;1.500;2023-11-19T07:43:25;16.25;;;7.20;;
81896;SDS011;71360;43.506;1.500;2023-11-19T07:45:51;13.47;;;7.17;;
81896;SDS011;71360;43.506;1.500;2023-11-19T07:48:16;12.20;;;6.45;;
81896;SDS011;71360;43.506;1.500;2023-11-19T07:50:47;11.40;;;6.57;;
81896;SDS011;71360;43.506;1.500;2023-11-19T07:53:15;12.45;;;6.50;;
81896;SDS011;71360;43.506;1.500;2023-11-19T07:55:41;13.77;;;6.28;;
81896;SDS011;71360;43.506;1.500;2023-11-19T07:58:06;14.77;;;6.40;;
81896;SDS011;71360;43.506;1.500;2023-11-19T08:00:32;11.00;;;6.47;;
81896;SDS011;71360;43.506;1.500;2023-11-19T08:02:57;13.20;;;7.20;;
81896;SDS011;71360;43.506;1.500;2023-11-19T08:05:22;14.07;;;7.73;;
81896;SDS011;71360;43.506;1.500;2023-11-19T08:07:49;12.85;;;7.10;;
81896;SDS011;71360;43.506;1.500;2023-11-19T08:10:16;12.73;;;6.72;;
81896;SDS011;71360;43.506;1.500;2023-11-19T08:12:41;12.47;;;7.10;;
81896;SDS011;71360;43.506;1.500;2023-11-19T08:15:07;12.80;;;7.07;;
81896;SDS011;71360;43.506;1.500;2023-11-19T08:17:33;16.45;;;6.80;;
81896;SDS011;71360;43.506;1.500;2023-11-19T08:19:58;13.67;;;6.60;;
81896;SDS011;71360;43.506;1.500;2023-11-19T08:22:25;11.15;;;6.35;;
81896;SDS011;71360;43.506;1.500;2023-11-19T08:24:50;11.63;;;6.18;;
81896;SDS011;71360;43.506;1.500;2023-11-19T08:27:16;11.47;;;6.43;;
81896;SDS011;71360;43.506;1.500;2023-11-19T08:29:41;12.13;;;6.20;;
81896;SDS011;71360;43.506;1.500;2023-11-19T08:32:07;12.33;;;6.07;;
81896;SDS011;71360;43.506;1.500;2023-11-19T08:34:32;14.50;;;6.17;;
81896;SDS011;71360;43.506;1.500;2023-11-19T08:36:58;10.47;;;6.10;;
81896;SDS011;71360;43.506;1.500;2023-11-19T08:39:24;10.15;;;5.85;;
81896;SDS011;71360;43.506;1.500;2023-11-19T08:41:49;13.90;;;5.87;;
81896;SDS011;71360;43.506;1.500;2023-11-19T08:44:16;14.70;;;6.20;;
81896;SDS011;71360;43.506;1.500;2023-11-19T08:46:48;13.90;;;5.63;;
81896;SDS011;71360;43.506;1.500;2023-11-19T08:49:14;11.32;;;5.70;;
81896;SDS011;71360;43.506;1.500;2023-11-19T08:51:40;10.73;;;5.70;;
81896;SDS011;71360;43.506;1.500;2023-11-19T08:54:06;9.88;;;6.18;;
81896;SDS011;71360;43.506;1.500;2023-11-19T08:56:32;11.53;;;6.00;;
81896;SDS011;71360;43.506;1.500;2023-11-19T08:58:59;15.10;;;6.45;;
81896;SDS011;71360;43.506;1.500;2023-11-19T09:01:25;11.47;;;6.60;;
81896;SDS011;71360;43.506;1.500;2023-11-19T09:03:50;12.02;;;7.00;;
81896;SDS011;71360;43.506;1.500;2023-11-19T09:06:17;13.05;;;7.97;;
81896;SDS011;71360;43.506;1.500;2023-11-19T09:08:42;12.97;;;7.90;;
81896;SDS011;71360;43.506;1.500;2023-11-19T09:11:08;15.55;;;9.45;;
81896;SDS011;71360;43.506;1.500;2023-11-19T09:13:34;17.37;;;9.17;;
81896;SDS011;71360;43.506;1.500;2023-11-19T09:16:02;13.23;;;8.00;;
81896;SDS011;71360;43.506;1.500;2023-11-19T09:18:31;12.77;;;7.68;;
81896;SDS011;71360;43.506;1.500;2023-11-19T09:20:57;14.27;;;6.88;;
81896;SDS011;71360;43.506;1.500;2023-11-19T09:23:23;11.43;;;6.80;;
81896;SDS011;71360;43.506;1.500;2023-11-19T09:25:50;12.45;;;6.97;;
81896;SDS011;71360;43.506;1.500;2023-11-19T09:28:16;13.52;;;8.10;;
81896;SDS011;71360;43.506;1.500;2023-11-19T09:30:41;13.90;;;7.70;;
81896;SDS011;71360;43.506;1.500;2023-11-19T09:33:07;12.57;;;7.97;;
81896;SDS011;71360;43.506;1.500;2023-11-19T09:35:32;15.43;;;7.87;;
81896;SDS011;71360;43.506;1.500;2023-11-19T09:37:58;13.40;;;7.53;;
81896;SDS011;71360;43.506;1.500;2023-11-19T09:40:24;12.63;;;7.53;;
81896;SDS011;71360;43.506;1.500;2023-11-19T09:42:49;12.83;;;7.60;;
81896;SDS011;71360;43.506;1.500;2023-11-19T09:45:15;12.30;;;7.43;;
81896;SDS011;71360;43.506;1.500;2023-11-19T09:47:43;14.50;;;8.10;;
81896;SDS011;71360;43.506;1.500;2023-11-19T09:50:10;13.97;;;7.43;;
81896;SDS011;71360;43.506;1.500;2023-11-19T09:52:45;13.27;;;7.25;;
81896;SDS011;71360;43.506;1.500;2023-11-19T09:55:11;15.90;;;7.38;;
81896;SDS011;71360;43.506;1.500;2023-11-19T09:57:40;15.00;;;7.80;;
81896;SDS011;71360;43.506;1.500;2023-11-19T10:00:08;12.90;;;7.45;;
81896;SDS011;71360;43.506;1.500;2023-11-19T10:02:36;13.32;;;7.15;;
81896;SDS011;71360;43.506;1.500;2023-11-19T10:05:04;14.30;;;7.25;;
81896;SDS011;71360;43.506;1.500;2023-11-19T10:07:31;11.98;;;7.07;;
81896;SDS011;71360;43.506;1.500;2023-11-19T10:10:01;14.10;;;7.60;;
81896;SDS011;71360;43.506;1.500;2023-11-19T10:12:29;14.38;;;6.93;;
81896;SDS011;71360;43.506;1.500;2023-11-19T10:14:56;12.25;;;6.63;;
81896;SDS011;71360;43.506;1.500;2023-11-19T10:17:33;12.80;;;7.10;;
81896;SDS011;71360;43.506;1.500;2023-11-19T10:19:59;11.82;;;7.00;;
81896;SDS011;71360;43.506;1.500;2023-11-19T10:22:25;13.33;;;7.10;;
81896;SDS011;71360;43.506;1.500;2023-11-19T10:24:52;12.23;;;6.80;;
81896;SDS011;71360;43.506;1.500;2023-11-19T10:27:17;10.90;;;6.33;;
81896;SDS011;71360;43.506;1.500;2023-11-19T10:29:46;12.73;;;6.63;;
81896;SDS011;71360;43.506;1.500;2023-11-19T10:32:12;12.93;;;6.60;;
81896;SDS011;71360;43.506;1.500;2023-11-19T10:34:39;14.57;;;6.55;;
81896;SDS011;71360;43.506;1.500;2023-11-19T10:37:06;13.50;;;6.35;;
81896;SDS011;71360;43.506;1.500;2023-11-19T10:42:16;11.10;;;5.97;;
81896;SDS011;71360;43.506;1.500;2023-11-19T10:44:42;10.43;;;5.10;;
81896;SDS011;71360;43.506;1.500;2023-11-19T10:47:08;12.50;;;5.97;;
81896;SDS011;71360;43.506;1.500;2023-11-19T10:49:35;10.68;;;5.47;;
81896;SDS011;71360;43.506;1.500;2023-11-19T10:52:01;10.18;;;5.60;;
81896;SDS011;71360;43.506;1.500;2023-11-19T10:54:27;9.80;;;4.87;;
81896;SDS011;71360;43.506;1.500;2023-11-19T10:56:58;10.27;;;5.10;;
81896;SDS011;71360;43.506;1.500;2023-11-19T10:59:25;13.32;;;4.70;;
81896;SDS011;71360;43.506;1.500;2023-11-19T11:01:54;7.88;;;4.60;;
81896;SDS011;71360;43.506;1.500;2023-11-19T11:04:25;8.48;;;5.05;;
81896;SDS011;71360;43.506;1.500;2023-11-19T11:06:53;10.50;;;5.50;;
81896;SDS011;71360;43.506;1.500;2023-11-19T11:09:20;10.75;;;5.63;;
81896;SDS011;71360;43.506;1.500;2023-11-19T11:11:46;11.23;;;6.50;;
81896;SDS011;71360;43.506;1.500;2023-11-19T11:14:12;11.97;;;6.17;;
81896;SDS011;71360;43.506;1.500;2023-11-19T11:16:43;10.35;;;5.60;;
81896;SDS011;71360;43.506;1.500;2023-11-19T11:19:10;10.20;;;5.60;;
81896;SDS011;71360;43.506;1.500;2023-11-19T11:21:37;12.18;;;5.40;;
81896;SDS011;71360;43.506;1.500;2023-11-19T11:24:27;10.15;;;5.20;;
81896;SDS011;71360;43.506;1.500;2023-11-19T11:38:30;8.45;;;4.60;;
81896;SDS011;71360;43.506;1.500;2023-11-19T11:41:21;10.47;;;4.80;;
81896;SDS011;71360;43.506;1.500;2023-11-19T11:43:49;10.15;;;4.97;;
81896;SDS011;71360;43.506;1.500;2023-11-19T11:48:57;8.13;;;4.43;;
81896;SDS011;71360;43.506;1.500;2023-11-19T11:54:10;10.23;;;4.63;;
81896;SDS011;71360;43.506;1.500;2023-11-19T11:59:47;9.70;;;4.25;;
81896;SDS011;71360;43.506;1.500;2023-11-19T12:02:20;9.10;;;4.45;;
81896;SDS011;71360;43.506;1.500;2023-11-19T12:04:48;8.40;;;4.13;;
81896;SDS011;71360;43.506;1.500;2023-11-19T12:07:19;8.67;;;4.17;;
81896;SDS011;71360;43.506;1.500;2023-11-19T12:09:47;8.13;;;4.10;;
81896;SDS011;71360;43.506;1.500;2023-11-19T12:17:56;11.83;;;5.00;;
81896;SDS011;71360;43.506;1.500;2023-11-19T12:20:15;9.25;;;5.07;;
81896;SDS011;71360;43.506;1.500;2023-11-19T12:22:42;10.35;;;5.32;;
81896;SDS011;71360;43.506;1.500;2023-11-19T12:25:09;10.25;;;5.30;;
81896;SDS011;71360;43.506;1.500;2023-11-19T12:27:37;10.77;;;5.40;;
81896;SDS011;71360;43.506;1.500;2023-11-19T12:30:06;9.97;;;5.00;;
81896;SDS011;71360;43.506;1.500;2023-11-19T12:32:42;10.05;;;4.90;;
81896;SDS011;71360;43.506;1.500;2023-11-19T12:35:08;8.90;;;4.50;;
81896;SDS011;71360;43.506;1.500;2023-11-19T12:37:43;9.80;;;5.40;;
81896;SDS011;71360;43.506;1.500;2023-11-19T12:42:47;13.13;;;5.80;;
81896;SDS011;71360;43.506;1.500;2023-11-19T12:45:13;11.45;;;5.97;;
81896;SDS011;71360;43.506;1.500;2023-11-19T12:47:40;10.75;;;5.65;;
81896;SDS011;71360;43.506;1.500;2023-11-19T12:50:06;11.30;;;5.67;;
81896;SDS011;71360;43.506;1.500;2023-11-19T12:52:33;11.60;;;5.78;;
81896;SDS011;71360;43.506;1.500;2023-11-19T12:55:00;10.07;;;5.80;;
81896;SDS011;71360;43.506;1.500;2023-11-19T12:57:38;11.90;;;5.37;;
81896;SDS011;71360;43.506;1.500;2023-11-19T13:00:05;9.18;;;4.90;;
81896;SDS011;71360;43.506;1.500;2023-11-19T13:02:44;9.63;;;4.90;;
81896;SDS011;71360;43.506;1.500;2023-11-19T13:05:28;9.82;;;4.78;;
81896;SDS011;71360;43.506;1.500;2023-11-19T13:08:05;8.63;;;4.63;;
81896;SDS011;71360;43.506;1.500;2023-11-19T13:10:33;8.90;;;4.20;;
81896;SDS011;71360;43.506;1.500;2023-11-19T13:13:19;8.15;;;4.43;;
81896;SDS011;71360;43.506;1.500;2023-11-19T13:15:44;8.45;;;4.57;;
81896;SDS011;71360;43.506;1.500;2023-11-19T13:18:11;8.80;;;4.75;;
81896;SDS011;71360;43.506;1.500;2023-11-19T13:20:37;8.70;;;4.70;;
81896;SDS011;71360;43.506;1.500;2023-11-19T13:23:04;10.30;;;5.30;;
81896;SDS011;71360;43.506;1.500;2023-11-19T13:25:30;11.18;;;5.43;;
81896;SDS011;71360;43.506;1.500;2023-11-19T13:27:57;10.45;;;5.15;;
81896;SDS011;71360;43.506;1.500;2023-11-19T13:30:23;10.23;;;5.60;;
81896;SDS011;71360;43.506;1.500;2023-11-19T13:32:49;9.13;;;5.00;;
81896;SDS011;71360;43.506;1.500;2023-11-19T13:35:15;10.27;;;5.10;;
81896;SDS011;71360;43.506;1.500;2023-11-19T13:37:44;10.30;;;5.20;;
81896;SDS011;71360;43.506;1.500;2023-11-19T13:40:11;11.65;;;4.90;;
81896;SDS011;71360;43.506;1.500;2023-11-19T13:42:43;9.40;;;4.85;;
81896;SDS011;71360;43.506;1.500;2023-11-19T13:45:10;9.55;;;4.80;;
81896;SDS011;71360;43.506;1.500;2023-11-19T13:47:37;9.90;;;4.83;;
81896;SDS011;71360;43.506;1.500;2023-11-19T13:50:13;7.95;;;4.53;;
81896;SDS011;71360;43.506;1.500;2023-11-19T13:52:40;10.70;;;4.63;;
81896;SDS011;71360;43.506;1.500;2023-11-19T13:55:08;7.97;;;4.55;;
81896;SDS011;71360;43.506;1.500;2023-11-19T13:57:35;9.48;;;4.30;;
81896;SDS011;71360;43.506;1.500;2023-11-19T14:00:04;9.47;;;4.37;;
81896;SDS011;71360;43.506;1.500;2023-11-19T14:02:37;9.32;;;4.40;;
81896;SDS011;71360;43.506;1.500;2023-11-19T14:05:03;7.67;;;4.10;;
81896;SDS011;71360;43.506;1.500;2023-11-19T14:07:28;9.00;;;4.40;;
81896;SDS011;71360;43.506;1.500;2023-11-19T14:09:54;10.00;;;4.30;;
81896;SDS011;71360;43.506;1.500;2023-11-19T14:12:19;8.05;;;4.13;;
81896;SDS011;71360;43.506;1.500;2023-11-19T14:14:45;7.37;;;4.00;;
81896;SDS011;71360;43.506;1.500;2023-11-19T14:17:10;8.57;;;4.13;;
81896;SDS011;71360;43.506;1.500;2023-11-19T14:19:36;41.70;;;14.15;;
81896;SDS011;71360;43.506;1.500;2023-11-19T14:22:03;9.23;;;4.70;;
81896;SDS011;71360;43.506;1.500;2023-11-19T14:24:28;9.10;;;4.40;;
81896;SDS011;71360;43.506;1.500;2023-11-19T14:26:54;7.60;;;4.20;;
81896;SDS011;71360;43.506;1.500;2023-11-19T14:29:23;8.60;;;3.65;;
81896;SDS011;71360;43.506;1.500;2023-11-19T14:31:48;7.20;;;3.70;;
81896;SDS011;71360;43.506;1.500;2023-11-19T14:34:14;9.73;;;4.10;;
81896;SDS011;71360;43.506;1.500;2023-11-19T14:36:39;7.60;;;3.80;;
81896;SDS011;71360;43.506;1.500;2023-11-19T14:39:05;7.45;;;3.60;;
81896;SDS011;71360;43.506;1.500;2023-11-19T14:41:32;7.60;;;3.67;;
81896;SDS011;71360;43.506;1.500;2023-11-19T14:43:57;7.43;;;3.35;;
81896;SDS011;71360;43.506;1.500;2023-11-19T14:46:23;8.60;;;3.60;;
81896;SDS011;71360;43.506;1.500;2023-11-19T14:48:48;7.53;;;3.60;;
81896;SDS011;71360;43.506;1.500;2023-11-19T14:51:13;9.30;;;3.80;;
81896;SDS011;71360;43.506;1.500;2023-11-19T14:53:39;9.50;;;3.83;;
81896;SDS011;71360;43.506;1.500;2023-11-19T14:56:04;7.57;;;3.63;;
81896;SDS011;71360;43.506;1.500;2023-11-19T14:58:32;7.50;;;3.53;;
81896;SDS011;71360;43.506;1.500;2023-11-19T15:00:57;7.78;;;3.47;;
81896;SDS011;71360;43.506;1.500;2023-11-19T15:03:23;7.23;;;3.50;;
81896;SDS011;71360;43.506;1.500;2023-11-19T15:05:48;7.77;;;3.50;;
81896;SDS011;71360;43.506;1.500;2023-11-19T15:08:14;6.33;;;3.20;;